sensor_id;sensor_type;location;lat;lon;timestamp;pressure;altitude;pressure_sealevel;temperature;humidity
51468;BME280;37545;45.302;-122.946;2022-10-16T00:01:42;100297.31;;;31.02;19.83
51468;BME280;37545;45.302;-122.946;2022-10-16T00:04:10;100296.84;;;30.96;20.39
51468;BME280;37545;45.302;-122.946;2022-10-16T00:06:39;100290.19;;;30.88;20.43
51468;BME280;37545;45.302;-122.946;2022-10-16T00:09:10;100291.38;;;30.83;21.90
51468;BME280;37545;45.302;-122.946;2022-10-16T00:11:39;100286.59;;;30.74;20.84
51468;BME280;37545;45.302;-122.946;2022-10-16T00:14:10;100283.56;;;30.65;21.32
51468;BME280;37545;45.302;-122.946;2022-10-16T00:16:39;100278.78;;;30.56;21.10
51468;BME280;37545;45.302;-122.946;2022-10-16T00:19:09;100285.47;;;30.49;21.19
51468;BME280;37545;45.302;-122.946;2022-10-16T00:21:39;100290.41;;;30.41;20.76
51468;BME280;37545;45.302;-122.946;2022-10-16T00:24:10;100291.72;;;30.34;21.48
51468;BME280;37545;45.302;-122.946;2022-10-16T00:26:39;100288.63;;;30.25;21.68
51468;BME280;37545;45.302;-122.946;2022-10-16T00:29:08;100294.50;;;30.16;21.31
51468;BME280;37545;45.302;-122.946;2022-10-16T00:31:37;100290.69;;;30.06;21.34
51468;BME280;37545;45.302;-122.946;2022-10-16T00:34:05;100291.22;;;29.97;20.86
51468;BME280;37545;45.302;-122.946;2022-10-16T00:36:34;100284.63;;;29.88;20.64
51468;BME280;37545;45.302;-122.946;2022-10-16T00:39:12;100284.31;;;29.78;21.06
51468;BME280;37545;45.302;-122.946;2022-10-16T00:41:41;100292.84;;;29.69;20.24
51468;BME280;37545;45.302;-122.946;2022-10-16T00:44:43;100288.84;;;29.60;20.59
51468;BME280;37545;45.302;-122.946;2022-10-16T00:47:15;100290.22;;;29.52;20.90
51468;BME280;37545;45.302;-122.946;2022-10-16T00:49:46;100288.88;;;29.44;21.61
51468;BME280;37545;45.302;-122.946;2022-10-16T00:52:16;100281.47;;;29.34;21.63
51468;BME280;37545;45.302;-122.946;2022-10-16T00:54:54;100286.47;;;29.24;21.95
51468;BME280;37545;45.302;-122.946;2022-10-16T00:57:24;100295.91;;;29.14;21.98
51468;BME280;37545;45.302;-122.946;2022-10-16T00:59:53;100288.38;;;29.04;22.04
51468;BME280;37545;45.302;-122.946;2022-10-16T01:02:22;100284.50;;;28.94;22.09
51468;BME280;37545;45.302;-122.946;2022-10-16T01:04:52;100287.75;;;28.83;22.55
51468;BME280;37545;45.302;-122.946;2022-10-16T01:07:30;100281.38;;;28.70;22.73
51468;BME280;37545;45.302;-122.946;2022-10-16T01:10:17;100286.47;;;28.57;22.82
51468;BME280;37545;45.302;-122.946;2022-10-16T01:12:57;100286.16;;;28.46;23.00
51468;BME280;37545;45.302;-122.946;2022-10-16T01:15:31;100285.84;;;28.35;22.89
51468;BME280;37545;45.302;-122.946;2022-10-16T01:18:05;100286.31;;;28.26;23.23
51468;BME280;37545;45.302;-122.946;2022-10-16T01:20:42;100286.09;;;28.13;23.63
51468;BME280;37545;45.302;-122.946;2022-10-16T01:23:22;100291.19;;;28.00;23.90
51468;BME280;37545;45.302;-122.946;2022-10-16T01:26:07;100285.59;;;27.87;24.07
51468;BME280;37545;45.302;-122.946;2022-10-16T01:28:44;100292.44;;;27.74;23.95
51468;BME280;37545;45.302;-122.946;2022-10-16T01:31:19;100292.97;;;27.63;24.20
51468;BME280;37545;45.302;-122.946;2022-10-16T01:33:56;100297.00;;;27.53;24.53
51468;BME280;37545;45.302;-122.946;2022-10-16T01:36:30;100287.88;;;27.40;24.95
51468;BME280;37545;45.302;-122.946;2022-10-16T01:39:02;100291.88;;;27.31;24.97
51468;BME280;37545;45.302;-122.946;2022-10-16T01:41:33;100298.53;;;27.21;24.76
51468;BME280;37545;45.302;-122.946;2022-10-16T01:44:07;100303.44;;;27.09;25.17
51468;BME280;37545;45.302;-122.946;2022-10-16T01:46:40;100302.22;;;26.98;25.59
51468;BME280;37545;45.302;-122.946;2022-10-16T01:49:09;100304.44;;;26.88;25.77
51468;BME280;37545;45.302;-122.946;2022-10-16T01:51:39;100314.75;;;26.75;26.21
51468;BME280;37545;45.302;-122.946;2022-10-16T01:54:08;100308.19;;;26.63;26.44
51468;BME280;37545;45.302;-122.946;2022-10-16T01:56:45;100315.66;;;26.53;26.83
51468;BME280;37545;45.302;-122.946;2022-10-16T01:59:20;100316.22;;;26.41;26.91
51468;BME280;37545;45.302;-122.946;2022-10-16T02:01:52;100322.88;;;26.29;26.57
51468;BME280;37545;45.302;-122.946;2022-10-16T02:04:26;100327.88;;;26.17;27.29
51468;BME280;37545;45.302;-122.946;2022-10-16T02:06:56;100324.03;;;26.02;26.78
51468;BME280;37545;45.302;-122.946;2022-10-16T02:09:25;100328.03;;;25.91;27.49
51468;BME280;37545;45.302;-122.946;2022-10-16T02:11:55;100331.06;;;25.81;27.77
51468;BME280;37545;45.302;-122.946;2022-10-16T02:14:27;100337.66;;;25.70;27.24
51468;BME280;37545;45.302;-122.946;2022-10-16T02:16:55;100335.50;;;25.58;27.47
51468;BME280;37545;45.302;-122.946;2022-10-16T02:19:24;100332.38;;;25.47;27.54
51468;BME280;37545;45.302;-122.946;2022-10-16T02:21:55;100341.63;;;25.37;28.05
51468;BME280;37545;45.302;-122.946;2022-10-16T02:24:28;100341.22;;;25.24;27.77
51468;BME280;37545;45.302;-122.946;2022-10-16T02:27:05;100346.84;;;25.15;27.90
51468;BME280;37545;45.302;-122.946;2022-10-16T02:29:40;100339.22;;;25.05;27.68
51468;BME280;37545;45.302;-122.946;2022-10-16T02:32:12;100347.59;;;24.95;27.73
51468;BME280;37545;45.302;-122.946;2022-10-16T02:34:44;100351.34;;;24.87;27.94
51468;BME280;37545;45.302;-122.946;2022-10-16T02:37:14;100350.78;;;24.79;27.39
51468;BME280;37545;45.302;-122.946;2022-10-16T02:39:43;100355.38;;;24.74;27.90
51468;BME280;37545;45.302;-122.946;2022-10-16T02:42:12;100358.25;;;24.68;28.15
51468;BME280;37545;45.302;-122.946;2022-10-16T02:44:42;100351.31;;;24.64;27.06
51468;BME280;37545;45.302;-122.946;2022-10-16T02:47:11;100355.78;;;24.62;27.37
51468;BME280;37545;45.302;-122.946;2022-10-16T02:49:40;100360.28;;;24.60;27.66
51468;BME280;37545;45.302;-122.946;2022-10-16T02:52:08;100364.75;;;24.58;27.03
51468;BME280;37545;45.302;-122.946;2022-10-16T02:54:37;100366.66;;;24.54;27.10
51468;BME280;37545;45.302;-122.946;2022-10-16T02:57:06;100362.41;;;24.49;27.08
51468;BME280;37545;45.302;-122.946;2022-10-16T02:59:34;100373.09;;;24.45;27.08
51468;BME280;37545;45.302;-122.946;2022-10-16T03:02:04;100372.38;;;24.40;27.35
51468;BME280;37545;45.302;-122.946;2022-10-16T03:04:33;100370.72;;;24.38;27.35
51468;BME280;37545;45.302;-122.946;2022-10-16T03:07:02;100375.22;;;24.34;27.16
51468;BME280;37545;45.302;-122.946;2022-10-16T03:09:30;100371.88;;;24.29;27.17
51468;BME280;37545;45.302;-122.946;2022-10-16T03:11:59;100373.72;;;24.27;29.08
51468;BME280;37545;45.302;-122.946;2022-10-16T03:14:27;100374.78;;;24.21;27.62
51468;BME280;37545;45.302;-122.946;2022-10-16T03:16:56;100375.72;;;24.19;27.19
51468;BME280;37545;45.302;-122.946;2022-10-16T03:19:26;100379.31;;;24.18;27.07
51468;BME280;37545;45.302;-122.946;2022-10-16T03:21:55;100379.41;;;24.15;28.37
51468;BME280;37545;45.302;-122.946;2022-10-16T03:24:23;100374.19;;;24.12;27.07
51468;BME280;37545;45.302;-122.946;2022-10-16T03:26:52;100365.53;;;24.08;28.09
51468;BME280;37545;45.302;-122.946;2022-10-16T03:29:20;100376.25;;;24.03;28.00
51468;BME280;37545;45.302;-122.946;2022-10-16T03:31:49;100375.53;;;23.98;28.36
51468;BME280;37545;45.302;-122.946;2022-10-16T03:34:17;100375.63;;;23.95;28.39
51468;BME280;37545;45.302;-122.946;2022-10-16T03:36:48;100372.31;;;23.89;28.07
51468;BME280;37545;45.302;-122.946;2022-10-16T03:39:16;100372.41;;;23.86;28.16
51468;BME280;37545;45.302;-122.946;2022-10-16T03:41:45;100378.66;;;23.83;28.15
51468;BME280;37545;45.302;-122.946;2022-10-16T03:44:14;100382.31;;;23.79;27.88
51468;BME280;37545;45.302;-122.946;2022-10-16T03:46:43;100380.66;;;23.75;28.32
51468;BME280;37545;45.302;-122.946;2022-10-16T03:49:11;100388.69;;;23.70;28.28
51468;BME280;37545;45.302;-122.946;2022-10-16T03:51:40;100389.75;;;23.65;28.04
51468;BME280;37545;45.302;-122.946;2022-10-16T03:54:11;100400.47;;;23.60;28.09
51468;BME280;37545;45.302;-122.946;2022-10-16T03:56:40;100404.06;;;23.57;28.30
51468;BME280;37545;45.302;-122.946;2022-10-16T03:59:09;100397.13;;;23.53;28.29
51468;BME280;37545;45.302;-122.946;2022-10-16T04:01:37;100398.13;;;23.49;28.28
51468;BME280;37545;45.302;-122.946;2022-10-16T04:04:06;100392.88;;;23.48;28.40
51468;BME280;37545;45.302;-122.946;2022-10-16T04:06:35;100399.06;;;23.48;28.79
51468;BME280;37545;45.302;-122.946;2022-10-16T04:09:04;100414.16;;;23.43;29.13
51468;BME280;37545;45.302;-122.946;2022-10-16T04:11:34;100409.00;;;23.38;28.29
51468;BME280;37545;45.302;-122.946;2022-10-16T04:14:03;100403.84;;;23.34;28.70
51468;BME280;37545;45.302;-122.946;2022-10-16T04:16:32;100411.00;;;23.30;28.60
51468;BME280;37545;45.302;-122.946;2022-10-16T04:19:01;100412.03;;;23.25;29.31
51468;BME280;37545;45.302;-122.946;2022-10-16T04:21:30;100407.72;;;23.22;28.63
51468;BME280;37545;45.302;-122.946;2022-10-16T04:23:59;100406.94;;;23.18;28.90
51468;BME280;37545;45.302;-122.946;2022-10-16T04:26:28;100412.38;;;23.14;29.28
51468;BME280;37545;45.302;-122.946;2022-10-16T04:28:58;100416.94;;;23.07;29.43
51468;BME280;37545;45.302;-122.946;2022-10-16T04:31:27;100411.78;;;23.03;29.10
51468;BME280;37545;45.302;-122.946;2022-10-16T04:33:56;100412.75;;;23.00;29.54
51468;BME280;37545;45.302;-122.946;2022-10-16T04:36:25;100419.84;;;22.95;29.65
51468;BME280;37545;45.302;-122.946;2022-10-16T04:38:54;100420.91;;;22.89;29.88
51468;BME280;37545;45.302;-122.946;2022-10-16T04:41:23;100421.84;;;22.87;29.96
51468;BME280;37545;45.302;-122.946;2022-10-16T04:43:51;100418.47;;;22.82;29.96
51468;BME280;37545;45.302;-122.946;2022-10-16T04:46:22;100415.84;;;22.82;29.83
51468;BME280;37545;45.302;-122.946;2022-10-16T04:48:51;100416.72;;;22.80;29.99
51468;BME280;37545;45.302;-122.946;2022-10-16T04:51:20;100423.81;;;22.78;29.89
51468;BME280;37545;45.302;-122.946;2022-10-16T04:53:49;100429.19;;;22.75;30.63
51468;BME280;37545;45.302;-122.946;2022-10-16T04:56:24;100432.78;;;22.71;29.95
51468;BME280;37545;45.302;-122.946;2022-10-16T04:58:53;100432.88;;;22.68;30.17
51468;BME280;37545;45.302;-122.946;2022-10-16T05:01:24;100435.59;;;22.65;30.43
51468;BME280;37545;45.302;-122.946;2022-10-16T05:03:53;100440.13;;;22.60;30.34
51468;BME280;37545;45.302;-122.946;2022-10-16T05:06:22;100439.34;;;22.56;30.56
51468;BME280;37545;45.302;-122.946;2022-10-16T05:08:51;100439.41;;;22.53;30.29
51468;BME280;37545;45.302;-122.946;2022-10-16T05:11:19;100443.91;;;22.50;30.64
51468;BME280;37545;45.302;-122.946;2022-10-16T05:13:48;100438.69;;;22.47;30.78
51468;BME280;37545;45.302;-122.946;2022-10-16T05:16:17;100441.44;;;22.42;31.33
51468;BME280;37545;45.302;-122.946;2022-10-16T05:18:47;100441.53;;;22.39;31.42
51468;BME280;37545;45.302;-122.946;2022-10-16T05:21:16;100443.34;;;22.35;31.74
51468;BME280;37545;45.302;-122.946;2022-10-16T05:23:45;100443.47;;;22.31;31.92
51468;BME280;37545;45.302;-122.946;2022-10-16T05:26:13;100445.44;;;22.23;32.39
51468;BME280;37545;45.302;-122.946;2022-10-16T05:28:42;100442.88;;;22.18;32.04
51468;BME280;37545;45.302;-122.946;2022-10-16T05:31:11;100433.28;;;22.15;32.41
51468;BME280;37545;45.302;-122.946;2022-10-16T05:33:39;100442.16;;;22.11;32.49
51468;BME280;37545;45.302;-122.946;2022-10-16T05:36:11;100439.63;;;22.05;32.66
51468;BME280;37545;45.302;-122.946;2022-10-16T05:38:39;100443.22;;;22.03;31.84
51468;BME280;37545;45.302;-122.946;2022-10-16T05:41:08;100442.38;;;22.01;32.27
51468;BME280;37545;45.302;-122.946;2022-10-16T05:43:36;100440.66;;;22.00;32.61
51468;BME280;37545;45.302;-122.946;2022-10-16T05:46:05;100434.63;;;21.94;32.67
51468;BME280;37545;45.302;-122.946;2022-10-16T05:48:34;100439.09;;;21.91;33.09
51468;BME280;37545;45.302;-122.946;2022-10-16T05:51:05;100440.16;;;21.82;32.56
51468;BME280;37545;45.302;-122.946;2022-10-16T05:53:37;100440.16;;;21.82;32.66
51468;BME280;37545;45.302;-122.946;2022-10-16T05:56:08;100429.69;;;21.79;32.57
51468;BME280;37545;45.302;-122.946;2022-10-16T05:58:38;100433.22;;;21.78;32.84
51468;BME280;37545;45.302;-122.946;2022-10-16T06:01:09;100438.63;;;21.72;33.43
51468;BME280;37545;45.302;-122.946;2022-10-16T06:03:38;100440.47;;;21.67;33.78
51468;BME280;37545;45.302;-122.946;2022-10-16T06:06:11;100436.28;;;21.58;34.25
51468;BME280;37545;45.302;-122.946;2022-10-16T06:08:42;100445.19;;;21.52;33.96
51468;BME280;37545;45.302;-122.946;2022-10-16T06:11:12;100445.25;;;21.49;34.47
51468;BME280;37545;45.302;-122.946;2022-10-16T06:13:41;100447.13;;;21.44;34.42
51468;BME280;37545;45.302;-122.946;2022-10-16T06:16:12;100446.28;;;21.42;34.07
51468;BME280;37545;45.302;-122.946;2022-10-16T06:18:41;100450.72;;;21.37;34.57
51468;BME280;37545;45.302;-122.946;2022-10-16T06:21:11;100436.78;;;21.32;34.56
51468;BME280;37545;45.302;-122.946;2022-10-16T06:23:42;100448.25;;;21.28;34.97
51468;BME280;37545;45.302;-122.946;2022-10-16T06:26:13;100445.72;;;21.23;34.65
51468;BME280;37545;45.302;-122.946;2022-10-16T06:28:42;100443.16;;;21.19;34.72
51468;BME280;37545;45.302;-122.946;2022-10-16T06:31:12;100443.25;;;21.16;34.63
51468;BME280;37545;45.302;-122.946;2022-10-16T06:33:41;100447.66;;;21.13;34.58
51468;BME280;37545;45.302;-122.946;2022-10-16T06:36:11;100442.47;;;21.10;34.71
51468;BME280;37545;45.302;-122.946;2022-10-16T06:38:42;100448.59;;;21.09;34.92
51468;BME280;37545;45.302;-122.946;2022-10-16T06:41:12;100438.16;;;21.06;35.33
51468;BME280;37545;45.302;-122.946;2022-10-16T06:43:42;100448.75;;;21.03;35.12
51468;BME280;37545;45.302;-122.946;2022-10-16T06:46:12;100446.16;;;21.00;35.36
51468;BME280;37545;45.302;-122.946;2022-10-16T06:48:41;100452.31;;;20.99;35.40
51468;BME280;37545;45.302;-122.946;2022-10-16T06:51:11;100440.06;;;20.98;35.89
51468;BME280;37545;45.302;-122.946;2022-10-16T06:53:43;100445.34;;;20.98;35.27
51468;BME280;37545;45.302;-122.946;2022-10-16T06:56:13;100453.19;;;21.00;35.44
51468;BME280;37545;45.302;-122.946;2022-10-16T06:58:42;100455.88;;;20.98;35.63
51468;BME280;37545;45.302;-122.946;2022-10-16T07:01:11;100452.34;;;20.98;35.91
51468;BME280;37545;45.302;-122.946;2022-10-16T07:03:41;100453.25;;;20.97;35.62
51468;BME280;37545;45.302;-122.946;2022-10-16T07:06:11;100448.00;;;20.95;34.89
51468;BME280;37545;45.302;-122.946;2022-10-16T07:08:42;100455.06;;;20.93;35.46
51468;BME280;37545;45.302;-122.946;2022-10-16T07:11:13;100446.31;;;20.91;35.36
51468;BME280;37545;45.302;-122.946;2022-10-16T07:13:43;100449.00;;;20.88;35.49
51468;BME280;37545;45.302;-122.946;2022-10-16T07:16:13;100447.31;;;20.84;35.82
51468;BME280;37545;45.302;-122.946;2022-10-16T07:18:42;100449.13;;;20.82;35.99
51468;BME280;37545;45.302;-122.946;2022-10-16T07:21:14;100450.88;;;20.83;35.64
51468;BME280;37545;45.302;-122.946;2022-10-16T07:23:44;100459.53;;;20.88;35.67
51468;BME280;37545;45.302;-122.946;2022-10-16T07:26:13;100464.72;;;20.91;35.47
51468;BME280;37545;45.302;-122.946;2022-10-16T07:28:43;100467.25;;;20.99;35.29
51468;BME280;37545;45.302;-122.946;2022-10-16T07:31:15;100469.78;;;21.03;35.13
51468;BME280;37545;45.302;-122.946;2022-10-16T07:33:44;100474.97;;;21.06;35.18
51468;BME280;37545;45.302;-122.946;2022-10-16T07:36:14;100475.81;;;21.10;34.94
51468;BME280;37545;45.302;-122.946;2022-10-16T07:38:45;100473.13;;;21.11;35.22
51468;BME280;37545;45.302;-122.946;2022-10-16T07:41:15;100468.72;;;21.13;34.94
51468;BME280;37545;45.302;-122.946;2022-10-16T07:43:46;100471.34;;;21.13;35.33
51468;BME280;37545;45.302;-122.946;2022-10-16T07:46:15;100471.38;;;21.12;35.27
51468;BME280;37545;45.302;-122.946;2022-10-16T07:48:45;100469.72;;;21.08;35.11
51468;BME280;37545;45.302;-122.946;2022-10-16T07:51:16;100471.56;;;21.01;35.14
51468;BME280;37545;45.302;-122.946;2022-10-16T07:53:46;100467.25;;;20.99;35.40
51468;BME280;37545;45.302;-122.946;2022-10-16T07:56:16;100464.72;;;20.92;35.00
51468;BME280;37545;45.302;-122.946;2022-10-16T07:58:45;100467.44;;;20.88;35.59
51468;BME280;37545;45.302;-122.946;2022-10-16T08:01:16;100474.53;;;20.83;35.64
51468;BME280;37545;45.302;-122.946;2022-10-16T08:03:45;100465.81;;;20.79;35.88
51468;BME280;37545;45.302;-122.946;2022-10-16T08:06:15;100474.63;;;20.75;35.59
51468;BME280;37545;45.302;-122.946;2022-10-16T08:08:43;100463.31;;;20.71;35.60
51468;BME280;37545;45.302;-122.946;2022-10-16T08:11:14;100477.34;;;20.70;36.49
51468;BME280;37545;45.302;-122.946;2022-10-16T08:13:43;100475.72;;;20.65;36.64
51468;BME280;37545;45.302;-122.946;2022-10-16T08:16:11;100474.00;;;20.62;36.47
51468;BME280;37545;45.302;-122.946;2022-10-16T08:18:41;100468.75;;;20.61;36.37
51468;BME280;37545;45.302;-122.946;2022-10-16T08:21:13;100474.06;;;20.59;36.80
51468;BME280;37545;45.302;-122.946;2022-10-16T08:23:42;100481.09;;;20.54;36.67
51468;BME280;37545;45.302;-122.946;2022-10-16T08:26:13;100476.75;;;20.53;37.05
51468;BME280;37545;45.302;-122.946;2022-10-16T08:28:50;100463.75;;;20.44;37.23
51468;BME280;37545;45.302;-122.946;2022-10-16T08:31:18;100474.19;;;20.47;37.19
51468;BME280;37545;45.302;-122.946;2022-10-16T08:33:47;100479.47;;;20.47;36.94
51468;BME280;37545;45.302;-122.946;2022-10-16T08:36:16;100468.94;;;20.47;37.27
51468;BME280;37545;45.302;-122.946;2022-10-16T08:38:48;100468.97;;;20.45;37.64
51468;BME280;37545;45.302;-122.946;2022-10-16T08:41:41;100471.59;;;20.45;37.94
51468;BME280;37545;45.302;-122.946;2022-10-16T08:44:32;100463.69;;;20.48;37.05
51468;BME280;37545;45.302;-122.946;2022-10-16T08:47:13;100462.69;;;20.56;36.22
51468;BME280;37545;45.302;-122.946;2022-10-16T08:49:55;100459.84;;;20.69;35.89
51468;BME280;37545;45.302;-122.946;2022-10-16T08:52:29;100460.53;;;20.81;35.65
51468;BME280;37545;45.302;-122.946;2022-10-16T08:54:58;100455.97;;;20.90;35.45
51468;BME280;37545;45.302;-122.946;2022-10-16T08:57:28;100464.56;;;21.00;35.29
51468;BME280;37545;45.302;-122.946;2022-10-16T09:00:01;100458.34;;;21.06;35.13
51468;BME280;37545;45.302;-122.946;2022-10-16T09:02:37;100459.97;;;21.13;35.18
51468;BME280;37545;45.302;-122.946;2022-10-16T09:05:22;100454.63;;;21.16;34.86
51468;BME280;37545;45.302;-122.946;2022-10-16T09:07:59;100453.69;;;21.20;34.66
51468;BME280;37545;45.302;-122.946;2022-10-16T09:10:38;100463.19;;;21.27;34.69
51468;BME280;37545;45.302;-122.946;2022-10-16T09:13:19;100460.50;;;21.30;34.96
51468;BME280;37545;45.302;-122.946;2022-10-16T09:15:55;100458.66;;;21.34;34.57
51468;BME280;37545;45.302;-122.946;2022-10-16T09:18:32;100459.50;;;21.38;34.27
51468;BME280;37545;45.302;-122.946;2022-10-16T09:21:09;100460.31;;;21.41;34.61
51468;BME280;37545;45.302;-122.946;2022-10-16T09:23:41;100462.84;;;21.46;34.55
51468;BME280;37545;45.302;-122.946;2022-10-16T09:26:13;100462.81;;;21.49;34.11
51468;BME280;37545;45.302;-122.946;2022-10-16T09:28:44;100474.13;;;21.52;34.16
51468;BME280;37545;45.302;-122.946;2022-10-16T09:31:17;100461.81;;;21.54;34.09
51468;BME280;37545;45.302;-122.946;2022-10-16T09:33:50;100474.00;;;21.59;33.97
51468;BME280;37545;45.302;-122.946;2022-10-16T09:36:21;100473.09;;;21.61;33.86
51468;BME280;37545;45.302;-122.946;2022-10-16T09:39:02;100469.53;;;21.62;34.03
51468;BME280;37545;45.302;-122.946;2022-10-16T09:41:33;100470.44;;;21.63;34.02
51468;BME280;37545;45.302;-122.946;2022-10-16T09:44:04;100471.28;;;21.63;33.87
51468;BME280;37545;45.302;-122.946;2022-10-16T09:46:34;100470.44;;;21.63;34.09
51468;BME280;37545;45.302;-122.946;2022-10-16T09:49:16;100466.91;;;21.62;33.78
51468;BME280;37545;45.302;-122.946;2022-10-16T09:51:47;100466.91;;;21.62;33.94
51468;BME280;37545;45.302;-122.946;2022-10-16T09:54:17;100467.81;;;21.61;33.79
51468;BME280;37545;45.302;-122.946;2022-10-16T09:56:46;100465.16;;;21.63;33.96
51468;BME280;37545;45.302;-122.946;2022-10-16T09:59:21;100466.03;;;21.62;34.04
51468;BME280;37545;45.302;-122.946;2022-10-16T10:02:00;100468.69;;;21.62;34.02
51468;BME280;37545;45.302;-122.946;2022-10-16T10:04:37;100468.69;;;21.62;34.01
51468;BME280;37545;45.302;-122.946;2022-10-16T10:07:17;100468.69;;;21.62;33.83
51468;BME280;37545;45.302;-122.946;2022-10-16T10:09:46;100467.78;;;21.63;33.86
51468;BME280;37545;45.302;-122.946;2022-10-16T10:12:19;100468.69;;;21.62;33.69
51468;BME280;37545;45.302;-122.946;2022-10-16T10:14:50;100462.56;;;21.61;33.94
51468;BME280;37545;45.302;-122.946;2022-10-16T10:17:21;100466.09;;;21.60;33.89
51468;BME280;37545;45.302;-122.946;2022-10-16T10:19:53;100468.75;;;21.59;33.77
51468;BME280;37545;45.302;-122.946;2022-10-16T10:22:32;100460.84;;;21.59;34.07
51468;BME280;37545;45.302;-122.946;2022-10-16T10:25:19;100460.00;;;21.58;34.16
51468;BME280;37545;45.302;-122.946;2022-10-16T10:28:00;100470.53;;;21.58;33.82
51468;BME280;37545;45.302;-122.946;2022-10-16T10:30:39;100465.31;;;21.55;34.11
51468;BME280;37545;45.302;-122.946;2022-10-16T10:33:18;100467.94;;;21.55;34.00
51468;BME280;37545;45.302;-122.946;2022-10-16T10:35:55;100461.81;;;21.54;34.24
51468;BME280;37545;45.302;-122.946;2022-10-16T10:38:37;100453.16;;;21.49;34.21
51468;BME280;37545;45.302;-122.946;2022-10-16T10:41:27;100461.03;;;21.49;33.98
51468;BME280;37545;45.302;-122.946;2022-10-16T10:44:06;100462.81;;;21.49;33.93
51468;BME280;37545;45.302;-122.946;2022-10-16T10:46:45;100454.94;;;21.47;34.19
51468;BME280;37545;45.302;-122.946;2022-10-16T10:49:28;100456.72;;;21.45;34.03
51468;BME280;37545;45.302;-122.946;2022-10-16T10:52:13;100448.84;;;21.44;34.15
51468;BME280;37545;45.302;-122.946;2022-10-16T10:54:55;100452.38;;;21.44;34.21
51468;BME280;37545;45.302;-122.946;2022-10-16T10:57:33;100454.16;;;21.42;34.15
51468;BME280;37545;45.302;-122.946;2022-10-16T11:00:15;100450.69;;;21.42;34.16
51468;BME280;37545;45.302;-122.946;2022-10-16T11:02:54;100448.06;;;21.40;34.46
51468;BME280;37545;45.302;-122.946;2022-10-16T11:05:36;100445.41;;;21.39;34.39
51468;BME280;37545;45.302;-122.946;2022-10-16T11:08:13;100448.06;;;21.40;34.29
51468;BME280;37545;45.302;-122.946;2022-10-16T11:10:47;100441.91;;;21.40;34.26
51468;BME280;37545;45.302;-122.946;2022-10-16T11:13:33;100444.56;;;21.38;34.22
51468;BME280;37545;45.302;-122.946;2022-10-16T11:16:20;100449.81;;;21.38;34.18
51468;BME280;37545;45.302;-122.946;2022-10-16T11:18:56;100447.22;;;21.37;34.32
51468;BME280;37545;45.302;-122.946;2022-10-16T11:21:30;100450.72;;;21.37;34.27
51468;BME280;37545;45.302;-122.946;2022-10-16T11:24:09;100451.63;;;21.36;34.23
51468;BME280;37545;45.302;-122.946;2022-10-16T11:26:44;100454.25;;;21.36;34.57
51468;BME280;37545;45.302;-122.946;2022-10-16T11:29:19;100453.41;;;21.34;34.27
51468;BME280;37545;45.302;-122.946;2022-10-16T11:31:54;100458.66;;;21.34;34.41
51468;BME280;37545;45.302;-122.946;2022-10-16T11:34:28;100463.06;;;21.33;34.53
51468;BME280;37545;45.302;-122.946;2022-10-16T11:37:04;100458.75;;;21.31;34.34
51468;BME280;37545;45.302;-122.946;2022-10-16T11:39:38;100469.28;;;21.31;34.47
51468;BME280;37545;45.302;-122.946;2022-10-16T11:42:11;100469.28;;;21.31;34.71
51468;BME280;37545;45.302;-122.946;2022-10-16T11:44:48;100464.88;;;21.30;34.53
51468;BME280;37545;45.302;-122.946;2022-10-16T11:47:26;100463.16;;;21.30;34.46
51468;BME280;37545;45.302;-122.946;2022-10-16T11:50:05;100462.25;;;21.30;34.62
51468;BME280;37545;45.302;-122.946;2022-10-16T11:52:40;100461.41;;;21.29;34.53
51468;BME280;37545;45.302;-122.946;2022-10-16T11:55:15;100457.06;;;21.27;34.21
51468;BME280;37545;45.302;-122.946;2022-10-16T11:57:47;100457.06;;;21.27;34.43
51468;BME280;37545;45.302;-122.946;2022-10-16T12:00:22;100459.69;;;21.27;34.61
51468;BME280;37545;45.302;-122.946;2022-10-16T12:02:58;100456.19;;;21.26;34.49
51468;BME280;37545;45.302;-122.946;2022-10-16T12:05:35;100464.97;;;21.25;34.58
51468;BME280;37545;45.302;-122.946;2022-10-16T12:08:11;100458.84;;;21.25;34.24
51468;BME280;37545;45.302;-122.946;2022-10-16T12:10:42;100464.13;;;21.25;34.36
51468;BME280;37545;45.302;-122.946;2022-10-16T12:13:31;100465.88;;;21.26;34.75
51468;BME280;37545;45.302;-122.946;2022-10-16T12:16:22;100450.97;;;21.23;34.57
51468;BME280;37545;45.302;-122.946;2022-10-16T12:19:09;100471.16;;;21.23;34.45
51468;BME280;37545;45.302;-122.946;2022-10-16T12:21:40;100471.16;;;21.23;34.79
51468;BME280;37545;45.302;-122.946;2022-10-16T12:24:29;100466.84;;;21.20;34.70
51468;BME280;37545;45.302;-122.946;2022-10-16T12:26:59;100464.19;;;21.22;35.01
51468;BME280;37545;45.302;-122.946;2022-10-16T12:29:36;100470.38;;;21.19;34.87
51468;BME280;37545;45.302;-122.946;2022-10-16T12:32:19;100470.38;;;21.19;34.73
51468;BME280;37545;45.302;-122.946;2022-10-16T12:34:51;100474.75;;;21.19;34.68
51468;BME280;37545;45.302;-122.946;2022-10-16T12:37:24;100474.75;;;21.19;35.15
51468;BME280;37545;45.302;-122.946;2022-10-16T12:39:54;100475.66;;;21.18;34.87
51468;BME280;37545;45.302;-122.946;2022-10-16T12:42:32;100476.56;;;21.17;34.69
51468;BME280;37545;45.302;-122.946;2022-10-16T12:45:12;100469.56;;;21.16;35.00
51468;BME280;37545;45.302;-122.946;2022-10-16T12:47:52;100479.28;;;21.12;34.61